Time;durP1;ratioP1;P1;durP2;ratioP2;P2;SDS_P1;SDS_P2;PMS_P1;PMS_P2;Temp;Humidity;BMP_temperature;BMP_pressure;BME280_temperature;BME280_humidity;BME280_pressure;Samples;Min_cycle;Max_cycle;Signal;HPM_P1;HPM_P2
2021/10/11 00:01:21;;;;;;;9.25;2.42;;;13.70;94.40;;;;;;5073568;28;20027;-76
2021/10/11 00:03:46;;;;;;;11.45;3.28;;;13.60;94.40;;;;;;5074039;28;20041;-75
2021/10/11 00:06:12;;;;;;;10.75;2.85;;;13.60;94.30;;;;;;5073397;28;20048;-75
2021/10/11 00:08:37;;;;;;;11.10;3.33;;;13.60;94.30;;;;;;5074081;28;20407;-75
2021/10/11 00:11:03;;;;;;;11.02;2.63;;;13.60;94.30;;;;;;5056037;28;20033;-75
2021/10/11 00:13:29;;;;;;;11.43;3.15;;;13.60;94.20;;;;;;5073623;28;20058;-75
2021/10/11 00:15:54;;;;;;;10.00;3.05;;;13.60;94.30;;;;;;5055676;28;20032;-74
2021/10/11 00:18:20;;;;;;;10.73;2.97;;;13.60;94.30;;;;;;5055416;28;20483;-75
2021/10/11 00:20:45;;;;;;;9.20;2.92;;;13.60;94.30;;;;;;5055767;28;20025;-75
2021/10/11 00:23:11;;;;;;;8.70;3.08;;;13.60;94.40;;;;;;5055114;28;20067;-74
2021/10/11 00:25:38;;;;;;;9.90;3.97;;;13.60;94.40;;;;;;5073687;28;20056;-74
2021/10/11 00:28:04;;;;;;;12.63;3.60;;;13.60;94.30;;;;;;5056294;28;20056;-74
2021/10/11 00:30:30;;;;;;;13.05;4.07;;;13.60;94.30;;;;;;5078378;28;20036;-74
2021/10/11 00:32:56;;;;;;;10.40;4.55;;;13.60;94.30;;;;;;5091449;28;20111;-74
2021/10/11 00:35:21;;;;;;;16.00;4.15;;;13.50;94.30;;;;;;5066661;28;20035;-74
2021/10/11 00:37:47;;;;;;;10.38;3.95;;;13.50;94.20;;;;;;5069167;28;20405;-73
2021/10/11 00:40:12;;;;;;;11.88;3.95;;;13.50;94.30;;;;;;5058602;28;20021;-73
2021/10/11 00:42:38;;;;;;;13.98;3.40;;;13.40;94.30;;;;;;5074311;28;20415;-74
2021/10/11 00:45:05;;;;;;;10.32;3.35;;;13.40;94.30;;;;;;5055374;28;20553;-74
2021/10/11 00:47:31;;;;;;;11.85;2.97;;;13.40;94.20;;;;;;5054819;28;20473;-72
2021/10/11 00:49:56;;;;;;;7.35;3.40;;;13.40;94.30;;;;;;5055253;28;20035;-74
2021/10/11 00:52:23;;;;;;;11.77;3.60;;;13.30;94.30;;;;;;5073034;28;20469;-74
2021/10/11 00:54:48;;;;;;;10.70;3.70;;;13.40;94.30;;;;;;5072926;28;20029;-73
2021/10/11 00:57:14;;;;;;;10.15;3.67;;;13.30;94.20;;;;;;5054216;28;20031;-73
2021/10/11 00:59:41;;;;;;;14.45;5.00;;;13.30;94.30;;;;;;5055262;28;20021;-75
2021/10/11 01:02:07;;;;;;;9.27;4.05;;;13.30;94.30;;;;;;5073625;28;20029;-74
2021/10/11 01:04:33;;;;;;;7.95;3.17;;;13.20;94.30;;;;;;5073925;28;20025;-75
2021/10/11 01:06:58;;;;;;;15.45;4.00;;;13.20;94.30;;;;;;5057713;28;20031;-74
2021/10/11 01:09:24;;;;;;;13.35;4.22;;;13.20;94.30;;;;;;5055487;28;20037;-74
2021/10/11 01:11:50;;;;;;;13.15;3.78;;;13.20;94.30;;;;;;5054848;28;20031;-74
2021/10/11 01:14:17;;;;;;;12.20;4.72;;;13.20;94.30;;;;;;5072792;28;20073;-74
2021/10/11 01:16:43;;;;;;;12.05;3.83;;;13.20;94.30;;;;;;5072294;28;20031;-74
2021/10/11 01:19:09;;;;;;;10.82;3.78;;;13.20;94.30;;;;;;5072750;28;20033;-74
2021/10/11 01:21:34;;;;;;;12.57;3.88;;;13.20;94.40;;;;;;5054563;28;20023;-75
2021/10/11 01:24:00;;;;;;;11.05;4.40;;;13.20;94.30;;;;;;5054879;28;20019;-73
2021/10/11 01:26:38;;;;;;;13.40;4.75;;;13.10;94.30;;;;;;5054566;28;20024;-74
2021/10/11 01:29:04;;;;;;;16.70;3.95;;;13.20;94.30;;;;;;5054847;28;20362;-74
2021/10/11 01:31:31;;;;;;;13.20;4.28;;;13.10;94.30;;;;;;5072568;28;20021;-73
2021/10/11 01:33:56;;;;;;;15.07;4.07;;;13.10;94.40;;;;;;5054926;28;20039;-74
2021/10/11 01:36:22;;;;;;;16.90;4.50;;;13.10;94.40;;;;;;5072891;28;20017;-74
2021/10/11 01:38:49;;;;;;;11.80;3.78;;;13.00;94.40;;;;;;5055190;28;20103;-74
2021/10/11 01:41:15;;;;;;;20.85;4.65;;;13.10;94.50;;;;;;5076364;28;20078;-72
2021/10/11 01:43:41;;;;;;;12.68;4.03;;;13.00;94.50;;;;;;5066085;28;20009;-73
2021/10/11 01:46:06;;;;;;;15.23;4.82;;;13.00;94.50;;;;;;5093604;28;20123;-73
2021/10/11 01:48:32;;;;;;;21.10;5.43;;;13.00;94.60;;;;;;5073264;28;20435;-74
2021/10/11 01:50:57;;;;;;;14.20;4.43;;;13.00;94.60;;;;;;5072564;28;20029;-74
2021/10/11 01:53:23;;;;;;;14.73;5.07;;;13.00;94.60;;;;;;5054197;28;20048;-75
2021/10/11 01:55:48;;;;;;;14.93;4.05;;;12.90;94.60;;;;;;5054407;28;20024;-74
2021/10/11 01:58:14;;;;;;;13.00;4.45;;;12.90;94.60;;;;;;5054493;28;20035;-74
2021/10/11 02:00:40;;;;;;;15.82;4.88;;;12.90;94.50;;;;;;5072340;28;20531;-74
2021/10/11 02:03:07;;;;;;;13.40;4.53;;;12.80;94.50;;;;;;5072234;28;20035;-74
2021/10/11 02:05:33;;;;;;;16.48;4.28;;;12.80;94.60;;;;;;5054009;28;20020;-74
2021/10/11 02:07:59;;;;;;;14.63;4.63;;;12.80;94.60;;;;;;5073824;28;20029;-74
2021/10/11 02:10:24;;;;;;;9.93;3.58;;;12.80;94.60;;;;;;5076032;28;20069;-74
2021/10/11 02:12:50;;;;;;;9.77;3.67;;;12.70;94.60;;;;;;5075545;28;20029;-74
2021/10/11 02:15:16;;;;;;;10.60;3.83;;;12.70;94.60;;;;;;5057935;28;20017;-74
2021/10/11 02:17:41;;;;;;;21.23;5.80;;;12.60;94.70;;;;;;5057952;28;20355;-74
2021/10/11 02:20:08;;;;;;;16.20;4.80;;;12.60;94.60;;;;;;5060370;28;20025;-74
2021/10/11 02:22:34;;;;;;;10.52;4.03;;;12.50;94.60;;;;;;5076640;28;20477;-73
2021/10/11 02:24:59;;;;;;;13.60;4.30;;;12.50;94.90;;;;;;5094101;28;20021;-74
2021/10/11 02:27:25;;;;;;;16.55;3.80;;;12.50;94.90;;;;;;5079830;28;20123;-73
2021/10/11 02:29:51;;;;;;;12.80;3.92;;;12.40;94.60;;;;;;5058726;28;20028;-74
2021/10/11 02:32:16;;;;;;;9.43;3.30;;;12.40;94.60;;;;;;5059079;28;20036;-74
2021/10/11 02:34:42;;;;;;;15.00;4.45;;;12.30;94.60;;;;;;5063716;28;20082;-74
2021/10/11 02:37:07;;;;;;;15.32;4.80;;;12.30;94.60;;;;;;5061492;28;20025;-74
2021/10/11 02:39:33;;;;;;;14.88;4.03;;;12.30;94.50;;;;;;5078007;28;20453;-74
2021/10/11 02:41:59;;;;;;;13.75;4.10;;;12.30;94.50;;;;;;5079282;28;20386;-75
2021/10/11 02:44:24;;;;;;;21.30;4.13;;;12.30;94.60;;;;;;5059825;28;20127;-74
2021/10/11 02:46:50;;;;;;;14.40;4.43;;;12.20;94.50;;;;;;5062319;28;20549;-74
2021/10/11 02:49:15;;;;;;;13.07;3.33;;;12.20;94.50;;;;;;5075624;28;20036;-74
2021/10/11 02:51:41;;;;;;;17.42;4.60;;;12.10;94.50;;;;;;5074812;28;20032;-74
2021/10/11 02:54:07;;;;;;;18.10;4.00;;;12.10;94.50;;;;;;5074862;28;20461;-73
2021/10/11 02:56:32;;;;;;;11.52;3.58;;;12.10;94.50;;;;;;5075155;28;20017;-74
2021/10/11 02:58:58;;;;;;;19.05;3.92;;;12.10;94.40;;;;;;5057446;28;20060;-74
2021/10/11 03:01:23;;;;;;;14.95;3.22;;;12.10;94.40;;;;;;5075073;28;20431;-73
2021/10/11 03:03:49;;;;;;;12.27;3.38;;;12.00;94.20;;;;;;5074804;28;20036;-74
2021/10/11 03:06:15;;;;;;;13.93;3.80;;;12.00;94.20;;;;;;5075352;28;20511;-73
2021/10/11 03:08:40;;;;;;;12.30;3.13;;;12.00;94.20;;;;;;5074699;28;20508;-73
2021/10/11 03:11:06;;;;;;;19.05;4.15;;;11.90;94.20;;;;;;5056900;28;20094;-73
2021/10/11 03:13:32;;;;;;;11.32;3.05;;;11.80;94.10;;;;;;5074662;28;20090;-74
2021/10/11 03:15:58;;;;;;;11.85;3.30;;;11.80;94.10;;;;;;5074699;28;20021;-74
2021/10/11 03:18:23;;;;;;;16.10;3.58;;;11.80;94.40;;;;;;5056756;28;20031;-75
2021/10/11 03:20:50;;;;;;;12.65;3.30;;;11.80;94.10;;;;;;5056402;28;20020;-74
2021/10/11 03:23:16;;;;;;;13.45;3.17;;;11.80;94.10;;;;;;5074987;28;20024;-74
2021/10/11 03:25:42;;;;;;;10.40;2.15;;;11.80;94.20;;;;;;5074351;28;20508;-73
2021/10/11 03:28:08;;;;;;;12.32;2.92;;;11.70;94.20;;;;;;5057195;28;20059;-73
2021/10/11 03:30:33;;;;;;;13.13;3.15;;;11.70;94.10;;;;;;5075089;28;20461;-73
2021/10/11 03:32:59;;;;;;;10.32;3.05;;;11.70;94.00;;;;;;5082216;28;20028;-74
2021/10/11 03:35:25;;;;;;;11.65;3.40;;;11.70;94.00;;;;;;5067516;28;20469;-72
2021/10/11 03:37:51;;;;;;;9.90;2.60;;;11.60;93.90;;;;;;5081247;28;20031;-73
2021/10/11 03:40:16;;;;;;;12.18;3.45;;;11.60;93.90;;;;;;5074496;28;20024;-73
2021/10/11 03:42:42;;;;;;;12.60;3.22;;;11.60;93.80;;;;;;5056574;28;20139;-73
2021/10/11 03:45:08;;;;;;;13.00;2.80;;;11.50;93.80;;;;;;5057278;28;20024;-74
2021/10/11 03:47:37;;;;;;;8.85;3.33;;;11.50;93.70;;;;;;5076718;28;20031;-73
2021/10/11 03:50:03;;;;;;;10.05;3.13;;;11.40;93.70;;;;;;5076622;28;20025;-74
2021/10/11 03:52:28;;;;;;;15.73;3.58;;;11.30;93.70;;;;;;5074598;28;20526;-73
2021/10/11 03:54:54;;;;;;;13.63;4.22;;;11.30;93.90;;;;;;5056135;28;20032;-73
2021/10/11 03:57:20;;;;;;;13.32;3.92;;;11.30;94.00;;;;;;5074160;28;20029;-74
2021/10/11 03:59:45;;;;;;;16.77;4.20;;;11.20;94.10;;;;;;5055856;28;20032;-73
2021/10/11 04:02:11;;;;;;;11.10;3.90;;;11.20;94.10;;;;;;5073735;28;20119;-73
2021/10/11 04:04:36;;;;;;;13.48;4.18;;;11.10;94.10;;;;;;5073540;28;20046;-74
2021/10/11 04:07:07;;;;;;;21.48;3.88;;;11.20;94.20;;;;;;5055919;28;20020;-73
2021/10/11 04:09:33;;;;;;;14.95;4.85;;;11.20;94.30;;;;;;5074323;28;20044;-73
2021/10/11 04:12:06;;;;;;;15.80;4.47;;;11.10;94.20;;;;;;5064997;28;20037;-74
2021/10/11 04:14:33;;;;;;;15.38;4.18;;;11.10;94.30;;;;;;5085290;28;20035;-73
2021/10/11 04:16:59;;;;;;;19.77;4.50;;;11.10;94.40;;;;;;5089773;28;20021;-73
2021/10/11 04:19:25;;;;;;;16.40;4.35;;;11.10;94.40;;;;;;5080698;28;20040;-72
2021/10/11 04:21:51;;;;;;;16.77;4.05;;;11.00;94.40;;;;;;5073430;28;20032;-72
2021/10/11 04:24:16;;;;;;;14.40;4.07;;;11.00;94.30;;;;;;5073222;28;20499;-74
2021/10/11 04:26:42;;;;;;;11.63;4.03;;;11.00;94.30;;;;;;5073219;28;20036;-75
2021/10/11 04:29:08;;;;;;;13.73;4.00;;;11.00;94.30;;;;;;5055377;28;20025;-73
2021/10/11 04:31:34;;;;;;;15.60;4.57;;;11.00;94.30;;;;;;5072214;28;20514;-74
2021/10/11 04:33:59;;;;;;;10.60;4.32;;;11.00;94.30;;;;;;5072904;28;20103;-74
2021/10/11 04:36:26;;;;;;;11.68;3.70;;;10.90;94.20;;;;;;5055353;28;20396;-74
2021/10/11 04:38:52;;;;;;;15.10;4.80;;;10.90;94.20;;;;;;5073534;28;20133;-73
2021/10/11 04:41:18;;;;;;;19.88;4.82;;;10.90;94.30;;;;;;5054994;28;20115;-74
2021/10/11 04:43:43;;;;;;;14.05;4.32;;;10.90;94.30;;;;;;5054876;28;20107;-74
2021/10/11 04:46:09;;;;;;;20.10;4.63;;;10.90;94.30;;;;;;5073302;28;20028;-75
2021/10/11 04:48:35;;;;;;;11.85;4.15;;;10.90;94.30;;;;;;5077034;28;20061;-74
2021/10/11 04:51:00;;;;;;;21.48;4.22;;;10.90;94.30;;;;;;5073491;28;20449;-74
2021/10/11 04:53:26;;;;;;;16.70;4.10;;;10.90;94.30;;;;;;5055057;28;20027;-74
2021/10/11 04:55:51;;;;;;;16.25;4.25;;;10.90;94.30;;;;;;5072606;28;20492;-74
2021/10/11 04:58:17;;;;;;;13.45;4.32;;;10.80;94.20;;;;;;5072771;28;20043;-74
2021/10/11 05:00:43;;;;;;;16.65;4.25;;;10.80;94.20;;;;;;5054514;28;20024;-74
2021/10/11 05:03:08;;;;;;;13.75;3.85;;;10.80;94.20;;;;;;5072857;28;20036;-74
2021/10/11 05:05:34;;;;;;;11.02;3.80;;;10.80;94.20;;;;;;5072183;28;20025;-73
2021/10/11 05:08:00;;;;;;;21.23;5.30;;;10.80;94.20;;;;;;5054511;28;20029;-74
2021/10/11 05:10:26;;;;;;;14.52;4.18;;;10.80;94.20;;;;;;5054747;28;20070;-74
2021/10/11 05:12:52;;;;;;;10.38;3.72;;;10.80;94.20;;;;;;5054787;28;20020;-73
2021/10/11 05:15:17;;;;;;;15.48;3.75;;;10.80;94.20;;;;;;5072612;28;20028;-74
2021/10/11 05:17:43;;;;;;;11.40;4.03;;;10.80;94.20;;;;;;5054711;28;20031;-73
2021/10/11 05:20:10;;;;;;;15.10;3.92;;;10.70;94.30;;;;;;5055155;28;20112;-73
2021/10/11 05:22:36;;;;;;;14.02;3.50;;;10.70;94.30;;;;;;5059484;28;20029;-71
2021/10/11 05:25:03;;;;;;;16.65;4.00;;;10.70;94.20;;;;;;5063652;28;20373;-73
2021/10/11 05:27:29;;;;;;;20.35;3.90;;;10.70;94.30;;;;;;5082693;28;20028;-74
2021/10/11 05:29:54;;;;;;;16.02;5.03;;;10.70;94.20;;;;;;5074591;28;20025;-74
2021/10/11 05:32:20;;;;;;;9.90;3.70;;;10.70;94.20;;;;;;5054551;28;20354;-74
2021/10/11 05:34:46;;;;;;;23.17;4.70;;;10.70;94.20;;;;;;5072254;28;20468;-74
2021/10/11 05:37:12;;;;;;;16.75;3.88;;;10.70;94.20;;;;;;5072650;28;20028;-74
2021/10/11 05:39:39;;;;;;;15.80;4.00;;;10.60;94.20;;;;;;5072188;28;20448;-73
2021/10/11 05:42:08;;;;;;;17.50;3.65;;;10.60;94.20;;;;;;5072853;28;20045;-73
2021/10/11 05:44:34;;;;;;;10.70;2.72;;;10.60;94.20;;;;;;5058314;28;20100;-74
2021/10/11 05:47:00;;;;;;;15.77;3.40;;;10.60;94.30;;;;;;5076775;28;20040;-73
2021/10/11 05:49:26;;;;;;;13.07;3.15;;;10.60;94.20;;;;;;5076687;28;20457;-73
2021/10/11 05:51:51;;;;;;;14.32;3.42;;;10.60;94.20;;;;;;5058251;28;20035;-74
2021/10/11 05:54:17;;;;;;;12.07;3.13;;;10.60;94.20;;;;;;5076122;28;20184;-74
2021/10/11 05:56:42;;;;;;;14.52;4.20;;;10.60;94.20;;;;;;5076069;28;20350;-73
2021/10/11 05:59:08;;;;;;;24.80;14.38;;;10.60;94.20;;;;;;5058072;28;20029;-72
2021/10/11 06:01:33;;;;;;;16.80;6.32;;;10.70;94.20;;;;;;5063872;28;20017;-73
2021/10/11 06:03:59;;;;;;;12.52;4.90;;;10.60;94.10;;;;;;5082317;28;20024;-72
2021/10/11 06:06:25;;;;;;;54.72;35.20;;;10.60;94.00;;;;;;5091350;28;20024;-73
2021/10/11 06:08:50;;;;;;;20.05;9.52;;;10.60;94.10;;;;;;5079137;28;20028;-73
2021/10/11 06:11:16;;;;;;;17.95;4.38;;;10.60;94.10;;;;;;5057562;28;20017;-73
2021/10/11 06:13:43;;;;;;;11.85;5.03;;;10.70;94.10;;;;;;5075395;28;20032;-74
2021/10/11 06:16:08;;;;;;;15.25;5.10;;;10.60;94.10;;;;;;5074784;28;20028;-74
2021/10/11 06:18:34;;;;;;;14.82;3.58;;;10.70;94.10;;;;;;5091053;28;20508;-74
2021/10/11 06:21:00;;;;;;;10.88;3.92;;;10.70;94.10;;;;;;5075398;28;20068;-74
2021/10/11 06:23:25;;;;;;;17.02;3.63;;;10.70;94.10;;;;;;5076162;28;20025;-73
2021/10/11 06:25:51;;;;;;;15.80;3.90;;;10.80;94.20;;;;;;5075540;28;20032;-74
2021/10/11 06:28:19;;;;;;;16.77;3.70;;;10.80;94.20;;;;;;5059020;28;20087;-74
2021/10/11 06:30:46;;;;;;;16.20;3.85;;;10.80;94.20;;;;;;5079033;28;20034;-74
2021/10/11 06:33:12;;;;;;;16.83;3.85;;;10.90;94.20;;;;;;5059259;28;20020;-74
2021/10/11 06:35:38;;;;;;;12.10;3.10;;;10.90;94.20;;;;;;5057076;28;20469;-72
2021/10/11 06:38:04;;;;;;;14.40;3.38;;;10.90;94.40;;;;;;5075378;28;20056;-74
2021/10/11 06:40:30;;;;;;;12.15;3.47;;;11.00;94.20;;;;;;5075458;28;20469;-73
2021/10/11 06:42:56;;;;;;;17.98;3.67;;;11.00;94.20;;;;;;5057180;28;20373;-72
2021/10/11 06:45:22;;;;;;;13.10;3.25;;;11.00;94.10;;;;;;5075098;28;20105;-74
2021/10/11 06:47:48;;;;;;;17.13;2.85;;;11.00;94.00;;;;;;5074856;28;20115;-74
2021/10/11 06:50:14;;;;;;;12.55;3.28;;;11.10;94.10;;;;;;5075585;28;20435;-74
2021/10/11 06:52:39;;;;;;;17.45;4.72;;;11.10;94.10;;;;;;5075845;28;20020;-75
2021/10/11 06:55:06;;;;;;;14.30;3.72;;;11.10;94.10;;;;;;5078145;28;20046;-74
2021/10/11 06:57:31;;;;;;;11.88;3.08;;;11.20;94.20;;;;;;5075554;28;20024;-74
2021/10/11 06:59:57;;;;;;;16.83;3.70;;;11.20;94.30;;;;;;5075009;28;20035;-74
2021/10/11 07:02:22;;;;;;;16.73;4.32;;;11.20;94.40;;;;;;5056872;28;20101;-73
2021/10/11 07:04:56;;;;;;;13.70;3.33;;;11.30;94.50;;;;;;5056729;28;20026;-74
2021/10/11 07:07:23;;;;;;;13.38;3.92;;;11.30;94.60;;;;;;5056951;28;20056;-73
2021/10/11 07:09:49;;;;;;;15.05;3.42;;;11.40;94.30;;;;;;5074722;28;20074;-73
2021/10/11 07:12:15;;;;;;;17.23;3.22;;;11.30;94.20;;;;;;5079237;28;20040;-74
2021/10/11 07:14:43;;;;;;;12.38;3.25;;;11.40;94.00;;;;;;5064446;28;20024;-74
2021/10/11 07:17:17;;;;;;;17.38;4.32;;;11.40;93.80;;;;;;5081589;28;20082;-73
2021/10/11 07:19:46;;;;;;;12.93;2.60;;;11.40;93.50;;;;;;5075050;28;20024;-75
2021/10/11 07:22:16;;;;;;;13.20;3.03;;;11.50;93.80;;;;;;5056712;28;20021;-75
2021/10/11 07:24:46;;;;;;;10.65;3.13;;;11.50;93.50;;;;;;5074667;28;20020;-74
2021/10/11 07:27:12;;;;;;;10.55;2.80;;;11.60;93.60;;;;;;5052764;28;20393;-74
2021/10/11 07:29:38;;;;;;;13.35;3.17;;;11.60;93.50;;;;;;5073568;28;20032;-74
2021/10/11 07:32:05;;;;;;;11.63;3.13;;;11.60;93.40;;;;;;5055835;28;20013;-74
2021/10/11 07:34:31;;;;;;;11.98;2.30;;;11.70;93.20;;;;;;5055756;28;20029;-74
2021/10/11 07:36:57;;;;;;;13.30;2.78;;;11.70;93.30;;;;;;5055735;28;20036;-74
2021/10/11 07:39:22;;;;;;;16.35;3.33;;;11.70;93.30;;;;;;5055832;28;20021;-74
2021/10/11 07:41:48;;;;;;;21.48;3.53;;;11.80;93.30;;;;;;5055815;28;20447;-74
2021/10/11 07:44:14;;;;;;;12.60;2.80;;;11.90;93.30;;;;;;5056230;28;20048;-74
2021/10/11 07:46:40;;;;;;;14.90;3.10;;;11.90;93.10;;;;;;5069442;28;20062;-74
2021/10/11 07:49:09;;;;;;;20.38;3.72;;;11.90;93.00;;;;;;5056567;28;20031;-75
2021/10/11 07:51:35;;;;;;;11.95;2.63;;;12.00;93.00;;;;;;5066160;28;20029;-74
2021/10/11 07:54:01;;;;;;;12.73;2.83;;;12.10;92.90;;;;;;5089976;28;20020;-75
2021/10/11 07:56:27;;;;;;;16.23;3.03;;;12.20;92.80;;;;;;5064510;28;20433;-74
2021/10/11 07:58:52;;;;;;;14.40;3.75;;;12.20;92.70;;;;;;5069442;28;20033;-74
2021/10/11 08:01:18;;;;;;;12.23;3.35;;;12.20;92.70;;;;;;5073432;28;20301;-74
2021/10/11 08:03:44;;;;;;;10.27;2.78;;;12.30;92.70;;;;;;5055199;28;20373;-74
2021/10/11 08:06:09;;;;;;;13.55;4.03;;;12.30;92.60;;;;;;5073494;28;20025;-76
2021/10/11 08:08:35;;;;;;;13.30;3.63;;;12.30;92.40;;;;;;5055638;28;20047;-75
2021/10/11 08:11:02;;;;;;;11.90;3.03;;;12.30;92.40;;;;;;5065454;28;20072;-75
2021/10/11 08:13:28;;;;;;;15.32;3.58;;;12.40;92.50;;;;;;5055741;28;20553;-75
2021/10/11 08:15:57;;;;;;;13.88;3.88;;;12.40;92.60;;;;;;5054843;28;20031;-75
2021/10/11 08:18:24;;;;;;;12.90;3.55;;;12.50;92.80;;;;;;5073440;28;20091;-76
2021/10/11 08:20:49;;;;;;;11.57;4.43;;;12.60;92.80;;;;;;5054902;28;20389;-76
2021/10/11 08:23:15;;;;;;;10.68;3.20;;;12.70;92.30;;;;;;5074083;28;20036;-76
2021/10/11 08:25:41;;;;;;;12.18;3.72;;;12.70;92.30;;;;;;5072737;28;20029;-76
2021/10/11 08:28:07;;;;;;;12.02;3.70;;;12.80;92.20;;;;;;5059991;28;20035;-75
2021/10/11 08:30:33;;;;;;;13.07;4.00;;;12.80;92.10;;;;;;5066522;28;20416;-76
2021/10/11 08:32:59;;;;;;;12.38;3.65;;;12.90;92.30;;;;;;5055951;28;20031;-77
2021/10/11 08:35:24;;;;;;;16.35;3.92;;;13.00;92.40;;;;;;5056059;28;20029;-75
2021/10/11 08:37:53;;;;;;;11.70;3.63;;;13.10;92.10;;;;;;5055709;28;20020;-76
2021/10/11 08:40:20;;;;;;;13.50;4.22;;;13.20;91.80;;;;;;5068962;28;20044;-75
2021/10/11 08:42:52;;;;;;;14.90;3.42;;;13.30;91.70;;;;;;5057491;28;20021;-76
2021/10/11 08:45:18;;;;;;;17.10;3.45;;;13.30;91.60;;;;;;5060434;28;20024;-77
2021/10/11 08:47:48;;;;;;;13.00;4.07;;;13.40;91.50;;;;;;5072753;28;20393;-74
2021/10/11 08:50:16;;;;;;;10.75;3.45;;;13.50;91.60;;;;;;5055347;28;20048;-77
2021/10/11 08:52:42;;;;;;;13.13;3.58;;;13.60;91.40;;;;;;5055377;28;20016;-76
2021/10/11 08:55:09;;;;;;;15.35;4.20;;;13.70;91.40;;;;;;5075891;28;20021;-76
2021/10/11 08:57:35;;;;;;;16.02;3.63;;;13.70;91.30;;;;;;5077886;28;20020;-75
2021/10/11 09:00:11;;;;;;;19.48;4.15;;;13.80;91.20;;;;;;5073628;28;20085;-77
2021/10/11 09:02:44;;;;;;;14.05;3.63;;;13.80;91.00;;;;;;5054629;28;20041;-77
2021/10/11 09:05:21;;;;;;;12.02;3.50;;;13.80;90.90;;;;;;5065094;28;20020;-75
2021/10/11 09:07:46;;;;;;;13.60;3.50;;;13.90;91.20;;;;;;5067923;28;20033;-77
2021/10/11 09:10:12;;;;;;;20.55;3.95;;;14.00;91.10;;;;;;5076600;28;20127;-77
2021/10/11 09:12:37;;;;;;;15.98;3.83;;;14.10;91.00;;;;;;5073593;28;20106;-76
2021/10/11 09:15:14;;;;;;;19.65;4.75;;;14.20;91.00;;;;;;5054939;28;20442;-75
2021/10/11 09:17:44;;;;;;;8.70;2.92;;;14.40;90.90;;;;;;5050854;28;20025;-76
2021/10/11 09:20:11;;;;;;;;;;;14.50;90.60;;;;;;5052513;28;20056;-77
2021/10/11 09:22:38;;;;;;;9.68;2.35;;;14.60;90.30;;;;;;5052886;28;20353;-75
2021/10/11 09:25:05;;;;;;;11.13;3.53;;;14.60;90.20;;;;;;5052709;28;20033;-76
2021/10/11 09:27:54;;;;;;;12.63;3.85;;;14.70;90.20;;;;;;5052808;28;20025;-76
2021/10/11 09:30:25;;;;;;;19.63;4.47;;;14.70;90.10;;;;;;5047696;28;20049;-76
2021/10/11 09:32:51;;;;;;;12.68;2.83;;;14.80;90.00;;;;;;5049908;28;20483;-77
2021/10/11 09:35:20;;;;;;;19.02;3.17;;;14.80;90.30;;;;;;5053316;28;20107;-76
2021/10/11 09:37:55;;;;;;;17.05;3.20;;;14.90;90.00;;;;;;5054803;28;20100;-76
2021/10/11 09:40:24;;;;;;;15.40;3.13;;;15.00;89.80;;;;;;5056579;28;20049;-74
2021/10/11 09:42:50;;;;;;;10.55;2.83;;;15.00;89.20;;;;;;5061183;28;20032;-76
2021/10/11 09:45:24;;;;;;;14.18;3.08;;;15.00;89.20;;;;;;5058517;28;20483;-75
2021/10/11 09:47:50;;;;;;;14.90;3.50;;;15.00;88.70;;;;;;5066765;28;20009;-76
2021/10/11 09:50:17;;;;;;;18.77;3.75;;;15.10;88.70;;;;;;5058453;28;20032;-77
2021/10/11 09:52:46;;;;;;;10.85;3.05;;;15.10;89.50;;;;;;5059789;28;20036;-77
2021/10/11 09:55:13;;;;;;;14.80;4.05;;;15.20;89.00;;;;;;5058784;28;20029;-77
2021/10/11 09:57:39;;;;;;;17.40;3.40;;;15.10;88.70;;;;;;5059905;28;20021;-77
2021/10/11 10:00:08;;;;;;;14.80;3.72;;;15.10;89.00;;;;;;5052297;28;20019;-77
2021/10/11 10:02:36;;;;;;;17.15;3.83;;;15.10;88.70;;;;;;5061996;28;20083;-76
2021/10/11 10:05:04;;;;;;;15.45;3.45;;;15.10;89.20;;;;;;5054559;28;20456;-77
2021/10/11 10:07:34;;;;;;;12.25;3.00;;;15.10;89.40;;;;;;5054229;28;20028;-77
2021/10/11 10:10:03;;;;;;;12.82;3.80;;;15.20;89.50;;;;;;5054253;28;20029;-76
2021/10/11 10:12:28;;;;;;;17.38;3.28;;;15.10;89.40;;;;;;5053997;28;20480;-77
2021/10/11 10:15:03;;;;;;;13.60;3.33;;;15.20;89.30;;;;;;5053698;28;20029;-77
2021/10/11 10:17:34;;;;;;;17.52;3.35;;;15.30;89.40;;;;;;5053797;28;20107;-76
2021/10/11 10:20:13;;;;;;;13.25;3.35;;;15.40;89.80;;;;;;5071756;28;20107;-76
2021/10/11 10:22:39;;;;;;;13.23;3.55;;;15.50;89.40;;;;;;5071894;28;20052;-76
2021/10/11 10:25:09;;;;;;;13.10;3.47;;;15.60;88.60;;;;;;5072009;28;20063;-76
2021/10/11 10:27:39;;;;;;;10.95;2.95;;;15.80;88.20;;;;;;5071596;28;20027;-76
2021/10/11 10:30:18;;;;;;;12.90;3.72;;;16.00;87.20;;;;;;5074846;28;20027;-76
2021/10/11 10:32:55;;;;;;;13.98;3.15;;;16.20;85.80;;;;;;5057699;28;20027;-77
2021/10/11 10:35:21;;;;;;;16.40;2.80;;;16.40;84.80;;;;;;5058047;28;20092;-77
2021/10/11 10:37:47;;;;;;;10.13;2.55;;;16.50;84.70;;;;;;5057742;28;20040;-77
2021/10/11 10:40:15;;;;;;;14.23;3.47;;;16.80;83.60;;;;;;5075615;28;20025;-76
2021/10/11 10:42:42;;;;;;;10.10;2.47;;;17.10;82.40;;;;;;5075892;28;20492;-77
2021/10/11 10:45:19;;;;;;;14.00;2.45;;;17.40;80.60;;;;;;5074495;28;20139;-76
2021/10/11 10:47:47;;;;;;;11.25;2.70;;;17.70;77.60;;;;;;5057708;28;20377;-76
2021/10/11 10:50:15;;;;;;;9.45;2.00;;;17.90;77.00;;;;;;5057865;28;20112;-76
2021/10/11 10:52:41;;;;;;;15.95;3.10;;;18.00;76.60;;;;;;5082746;28;20104;-76
2021/10/11 10:55:07;;;;;;;14.75;3.03;;;18.10;75.10;;;;;;5093220;28;20024;-75
2021/10/11 10:57:33;;;;;;;6.45;1.75;;;18.20;76.80;;;;;;5092437;28;20035;-77
2021/10/11 11:00:02;;;;;;;11.68;2.63;;;18.20;76.60;;;;;;5082855;28;20025;-77
2021/10/11 11:02:30;;;;;;;10.30;1.75;;;18.20;75.60;;;;;;5076081;28;20040;-77
2021/10/11 11:05:04;;;;;;;10.55;2.28;;;18.40;76.10;;;;;;5074995;28;20457;-77
2021/10/11 11:07:37;;;;;;;8.77;1.98;;;18.70;74.30;;;;;;5057317;28;20024;-75
2021/10/11 11:10:14;;;;;;;11.73;2.72;;;19.00;74.20;;;;;;5075132;28;20035;-76
2021/10/11 11:12:45;;;;;;;7.63;1.38;;;19.20;73.00;;;;;;5075454;28;20024;-76
2021/10/11 11:15:35;;;;;;;8.90;1.90;;;19.60;74.00;;;;;;5075217;28;20025;-76
2021/10/11 11:18:09;;;;;;;8.00;2.10;;;19.90;70.20;;;;;;5062087;28;20054;-77
2021/10/11 11:20:40;;;;;;;8.75;2.30;;;20.10;67.30;;;;;;5075193;28;20018;-77
2021/10/11 11:23:12;;;;;;;12.88;2.38;;;20.20;66.60;;;;;;5056778;28;20036;-77
2021/10/11 11:25:43;;;;;;;13.90;2.10;;;20.30;67.10;;;;;;5074876;28;20024;-77
2021/10/11 11:28:12;;;;;;;7.35;1.73;;;20.50;65.80;;;;;;5056735;28;20083;-77
2021/10/11 11:30:38;;;;;;;11.13;1.98;;;20.70;67.00;;;;;;5058492;28;20097;-77
2021/10/11 11:33:06;;;;;;;12.40;2.10;;;20.90;60.10;;;;;;5070887;28;20032;-76
2021/10/11 11:35:38;;;;;;;8.07;1.67;;;20.80;60.60;;;;;;5084238;28;20074;-77
2021/10/11 11:38:09;;;;;;;7.95;1.50;;;20.70;61.80;;;;;;5090964;28;20081;-77
2021/10/11 11:40:37;;;;;;;7.63;1.42;;;20.60;59.80;;;;;;5076953;28;20031;-77
2021/10/11 11:43:08;;;;;;;10.05;1.83;;;20.60;63.70;;;;;;5056316;28;20020;-76
2021/10/11 11:45:48;;;;;;;6.38;1.30;;;20.80;63.40;;;;;;5073785;28;20025;-76
2021/10/11 11:48:17;;;;;;;8.13;1.90;;;20.80;66.50;;;;;;5056366;28;20020;-76
2021/10/11 11:50:44;;;;;;;9.00;2.00;;;20.80;66.60;;;;;;5075156;28;20029;-77
2021/10/11 11:53:12;;;;;;;9.65;2.00;;;20.70;61.10;;;;;;5059107;28;20035;-77
2021/10/11 11:55:38;;;;;;;7.25;1.67;;;20.40;61.80;;;;;;5060939;28;20086;-77
2021/10/11 11:58:13;;;;;;;6.82;1.23;;;20.00;60.30;;;;;;5074921;28;20094;-76
2021/10/11 12:00:41;;;;;;;10.35;2.00;;;19.70;67.00;;;;;;5074101;28;20028;-77
2021/10/11 12:03:09;;;;;;;6.07;1.25;;;19.40;67.00;;;;;;5073273;28;20039;-76
2021/10/11 12:05:34;;;;;;;8.60;1.45;;;19.20;70.60;;;;;;5073439;28;20020;-77
2021/10/11 12:08:00;;;;;;;6.72;1.75;;;18.90;65.50;;;;;;5073434;28;20040;-76
2021/10/11 12:10:26;;;;;;;8.43;1.48;;;18.70;66.90;;;;;;5073641;28;20099;-76
2021/10/11 12:13:03;;;;;;;10.02;1.25;;;18.90;67.70;;;;;;5073920;28;20036;-77
2021/10/11 12:15:31;;;;;;;7.03;1.52;;;19.20;64.70;;;;;;5073433;28;20028;-77
2021/10/11 12:18:10;;;;;;;10.15;1.45;;;19.60;66.50;;;;;;5055403;28;20036;-77
2021/10/11 12:20:46;;;;;;;7.35;1.27;;;19.90;61.60;;;;;;5058503;28;20473;-78
2021/10/11 12:23:12;;;;;;;7.25;1.88;;;19.90;66.80;;;;;;5056420;28;20016;-78
2021/10/11 12:25:39;;;;;;;8.25;1.40;;;20.00;64.60;;;;;;5055330;28;20120;-78
2021/10/11 12:28:30;;;;;;;9.60;1.73;;;20.10;66.30;;;;;;5055197;28;20020;-78
2021/10/11 12:31:02;;;;;;;5.78;1.00;;;20.00;66.90;;;;;;5051551;28;20044;-77
2021/10/11 12:33:39;;;;;;;9.48;2.22;;;19.90;67.40;;;;;;5055424;28;20077;-77
2021/10/11 12:36:06;;;;;;;8.63;1.35;;;19.60;61.20;;;;;;5054924;28;20465;-77
2021/10/11 12:38:40;;;;;;;5.25;1.27;;;19.20;63.20;;;;;;5055162;28;20056;-77